createdAt,value
2023-01-10T00:01:06.895Z,158004.25
2023-01-10T00:03:34.199Z,158009.59
2023-01-10T00:06:01.802Z,158001.56
2023-01-10T00:08:29.020Z,157997.59
2023-01-10T00:10:56.625Z,157986.94
2023-01-10T00:13:23.949Z,157996.28
2023-01-10T00:15:53.083Z,158002.94
2023-01-10T00:18:20.767Z,157997.59
2023-01-10T00:20:49.590Z,157990.97
2023-01-10T00:23:18.581Z,157982.97
2023-01-10T00:25:46.591Z,157980.28
2023-01-10T00:28:20.517Z,157980.28
2023-01-10T00:30:55.864Z,157982.97
2023-01-10T00:33:23.577Z,157985.63
2023-01-10T00:35:51.525Z,157988.28
2023-01-10T00:38:19.380Z,157994.91
2023-01-10T00:40:46.755Z,157996.28
2023-01-10T00:43:32.743Z,158001.56
2023-01-10T00:46:00.332Z,158004.25
2023-01-10T00:48:27.915Z,158000.25
2023-01-10T00:50:55.247Z,158004.25
2023-01-10T00:53:23.134Z,157998.94
2023-01-10T00:55:50.315Z,158002.94
2023-01-10T00:58:18.045Z,158009.59
2023-01-10T01:00:51.433Z,158008.22
2023-01-10T01:03:20.886Z,158001.56
2023-01-10T01:05:49.009Z,158001.56
2023-01-10T01:08:18.261Z,157993.59
2023-01-10T01:10:46.050Z,157989.63
2023-01-10T01:13:21.642Z,157986.94
2023-01-10T01:15:49.771Z,157998.94
2023-01-10T01:18:20.999Z,158006.91
2023-01-10T01:20:52.641Z,157997.59
2023-01-10T01:23:20.314Z,157990.97
2023-01-10T01:25:51.027Z,157951.06
2023-01-10T01:28:19.082Z,157980.28
2023-01-10T01:30:46.638Z,157988.28
2023-01-10T01:33:15.671Z,157968.38
2023-01-10T01:35:44.531Z,157996.28
2023-01-10T01:38:12.951Z,158000.25
2023-01-10T01:40:41.844Z,157996.28
2023-01-10T01:43:23.610Z,158005.59
2023-01-10T01:45:51.674Z,158005.59
2023-01-10T01:48:38.628Z,158009.59
2023-01-10T01:51:08.869Z,158001.56
2023-01-10T01:53:47.677Z,158002.94
2023-01-10T01:56:23.565Z,158017.56
2023-01-10T01:59:02.012Z,158026.84
2023-01-10T02:01:31.267Z,158028.19
2023-01-10T02:04:03.970Z,158028.19
2023-01-10T02:06:31.090Z,158021.53
2023-01-10T02:09:24.019Z,158030.88
2023-01-10T02:11:51.317Z,158037.47
2023-01-10T02:14:19.909Z,158025.53
2023-01-10T02:16:47.151Z,158024.22
2023-01-10T02:19:43.443Z,158024.22
2023-01-10T02:23:01.572Z,158017.56
2023-01-10T02:25:54.043Z,158026.84
2023-01-10T02:28:58.743Z,158026.84
2023-01-10T02:31:57.515Z,158025.53
2023-01-10T02:34:50.032Z,158025.53
2023-01-10T02:37:38.683Z,158009.59
2023-01-10T02:40:19.536Z,158004.25
2023-01-10T02:42:52.948Z,157998.94
2023-01-10T02:45:20.080Z,158005.59
2023-01-10T02:47:47.720Z,158006.91
2023-01-10T02:50:59.404Z,158008.22
2023-01-10T02:53:30.422Z,157994.91
2023-01-10T02:56:36.486Z,157985.63
2023-01-10T02:59:15.846Z,157978.97
2023-01-10T03:01:46.008Z,157990.97
2023-01-10T03:04:18.093Z,157992.28
2023-01-10T03:06:51.452Z,157990.97
2023-01-10T03:09:34.314Z,157989.63
2023-01-10T03:12:15.103Z,157984.31
2023-01-10T03:14:43.217Z,157989.63
2023-01-10T03:17:12.228Z,157985.63
2023-01-10T03:19:43.855Z,157967.00
2023-01-10T03:22:11.711Z,157977.66
2023-01-10T03:24:43.437Z,157978.97
2023-01-10T03:27:10.901Z,157967.00
2023-01-10T03:29:46.722Z,157959.03
2023-01-10T03:32:15.717Z,157961.72
2023-01-10T03:34:43.922Z,157961.72
2023-01-10T03:37:18.422Z,157965.69
2023-01-10T03:39:51.902Z,157956.38
2023-01-10T03:43:00.148Z,157943.09
2023-01-10T03:45:33.545Z,157936.44
2023-01-10T03:48:03.383Z,157948.41
2023-01-10T03:50:31.624Z,157949.75
2023-01-10T03:52:59.287Z,157941.75
2023-01-10T03:55:29.136Z,157949.75
2023-01-10T03:57:56.368Z,157953.75
2023-01-10T04:00:24.449Z,157943.09
2023-01-10T04:02:51.873Z,157947.09
2023-01-10T04:05:19.759Z,157947.09
2023-01-10T04:07:47.862Z,157941.75
2023-01-10T04:10:15.916Z,157941.75
2023-01-10T04:12:43.264Z,157944.41
2023-01-10T04:15:11.052Z,157935.13
2023-01-10T04:17:38.443Z,157951.06
2023-01-10T04:20:06.653Z,157956.38
2023-01-10T04:22:33.980Z,157956.38
2023-01-10T04:25:01.584Z,157961.72
2023-01-10T04:27:28.900Z,157949.75
2023-01-10T04:29:56.303Z,157965.69
2023-01-10T04:32:23.551Z,157952.38
2023-01-10T04:34:51.383Z,157967.00
2023-01-10T04:37:18.682Z,157941.75
2023-01-10T04:39:46.266Z,157961.72
2023-01-10T04:42:14.214Z,157965.69
2023-01-10T04:44:41.847Z,157959.03
2023-01-10T04:47:09.303Z,157948.41
2023-01-10T04:49:36.960Z,157940.44
2023-01-10T04:52:04.268Z,157944.41
2023-01-10T04:54:31.875Z,157940.44
2023-01-10T04:56:59.132Z,157935.13
2023-01-10T04:59:26.665Z,157924.44
2023-01-10T05:01:54.052Z,157932.47
2023-01-10T05:04:22.338Z,157936.44
2023-01-10T05:06:49.602Z,157931.09
2023-01-10T05:09:17.289Z,157923.13
2023-01-10T05:11:44.627Z,157939.06
2023-01-10T05:14:12.112Z,157939.06
2023-01-10T05:16:39.660Z,157940.44
2023-01-10T05:19:07.289Z,157937.75
2023-01-10T05:21:34.518Z,157935.13
2023-01-10T05:24:01.921Z,157945.72
2023-01-10T05:26:29.390Z,157947.09
2023-01-10T05:28:56.913Z,157949.75
2023-01-10T05:31:24.326Z,157957.69
2023-01-10T05:33:53.017Z,157959.03
2023-01-10T05:36:20.448Z,157952.38
2023-01-10T05:38:48.463Z,157955.06
2023-01-10T05:41:15.708Z,157941.75
2023-01-10T05:43:43.371Z,157941.75
2023-01-10T05:46:10.793Z,157943.09
2023-01-10T05:48:38.526Z,157956.38
2023-01-10T05:51:06.225Z,157945.72
2023-01-10T05:53:33.961Z,157960.41
2023-01-10T05:56:02.693Z,157951.06
2023-01-10T05:58:30.302Z,157953.75
2023-01-10T06:00:57.953Z,157953.75
2023-01-10T06:03:26.854Z,157952.38
2023-01-10T06:05:57.744Z,157951.06
2023-01-10T06:08:25.484Z,157959.03
2023-01-10T06:10:52.857Z,157956.38
2023-01-10T06:13:20.656Z,157956.38
2023-01-10T06:15:48.684Z,157953.75
2023-01-10T06:18:16.722Z,157945.72
2023-01-10T06:20:44.201Z,157945.72
2023-01-10T06:23:12.243Z,157928.47
2023-01-10T06:25:41.705Z,157925.81
2023-01-10T06:28:11.061Z,157925.81
2023-01-10T06:30:39.094Z,157927.16
2023-01-10T06:33:07.656Z,157916.47
2023-01-10T06:35:35.748Z,157905.88
2023-01-10T06:38:03.704Z,157880.59
2023-01-10T06:40:31.017Z,157892.56
2023-01-10T06:42:59.314Z,157887.25
2023-01-10T06:45:26.599Z,157881.91
2023-01-10T06:47:54.245Z,157873.94
2023-01-10T06:50:21.716Z,157884.59
2023-01-10T06:52:57.773Z,157867.31
2023-01-10T06:55:26.032Z,157867.31
2023-01-10T06:57:58.215Z,157858.00
2023-01-10T07:00:27.635Z,157870.00
2023-01-10T07:02:56.828Z,157867.31
2023-01-10T07:05:24.638Z,157864.66
2023-01-10T07:07:52.141Z,157875.25
2023-01-10T07:10:19.751Z,157870.00
2023-01-10T07:12:47.334Z,157875.25
2023-01-10T07:15:14.633Z,157877.97
2023-01-10T07:17:42.206Z,157881.91
2023-01-10T07:20:10.481Z,157880.59
2023-01-10T07:22:38.026Z,157888.56
2023-01-10T07:25:06.112Z,157891.25
2023-01-10T07:27:33.939Z,157895.22
2023-01-10T07:30:01.336Z,157891.25
2023-01-10T07:32:28.958Z,157889.88
2023-01-10T07:34:56.330Z,157891.25
2023-01-10T07:37:24.043Z,157881.91
2023-01-10T07:39:51.291Z,157888.56
2023-01-10T07:42:18.915Z,157895.22
2023-01-10T07:44:47.502Z,157900.53
2023-01-10T07:47:16.280Z,157897.91
2023-01-10T07:49:43.610Z,157888.56
2023-01-10T07:52:11.310Z,157879.28
2023-01-10T07:54:38.574Z,157875.25
2023-01-10T07:57:06.254Z,157867.31
2023-01-10T07:59:33.477Z,157861.97
2023-01-10T08:02:01.287Z,157842.06
2023-01-10T08:04:28.887Z,157850.03
2023-01-10T08:06:56.532Z,157836.75
2023-01-10T08:09:23.836Z,157816.81
2023-01-10T08:11:51.435Z,157831.41
2023-01-10T08:14:18.799Z,157827.47
2023-01-10T08:16:46.500Z,157818.13
2023-01-10T08:19:16.896Z,157814.16
2023-01-10T08:21:44.707Z,157807.53
2023-01-10T08:24:12.081Z,157808.84
2023-01-10T08:26:39.723Z,157807.53
2023-01-10T08:29:07.535Z,157810.16
2023-01-10T08:31:35.375Z,157812.78
2023-01-10T08:34:02.831Z,157819.44
2023-01-10T08:36:30.541Z,157799.56
2023-01-10T08:38:58.259Z,157808.84
2023-01-10T08:41:26.009Z,157802.19
2023-01-10T08:43:53.298Z,157799.56
2023-01-10T08:46:21.119Z,157799.56
2023-01-10T08:48:50.513Z,157808.84
2023-01-10T08:51:18.690Z,157783.56
2023-01-10T08:53:45.967Z,157779.59
2023-01-10T08:56:13.642Z,157802.19
2023-01-10T08:58:40.978Z,157804.81
2023-01-10T09:01:08.970Z,157815.47
2023-01-10T09:03:36.284Z,157812.78
2023-01-10T09:06:04.030Z,157816.81
2023-01-10T09:08:31.298Z,157822.13
2023-01-10T09:11:00.829Z,157823.44
2023-01-10T09:13:29.419Z,157820.81
2023-01-10T09:15:57.588Z,157828.78
2023-01-10T09:18:25.335Z,157824.78
2023-01-10T09:20:53.365Z,157816.81
2023-01-10T09:23:22.244Z,157819.44
2023-01-10T09:25:51.890Z,157836.75
2023-01-10T09:28:21.351Z,157843.41
2023-01-10T09:30:48.950Z,157831.41
2023-01-10T09:33:16.444Z,157823.44
2023-01-10T09:35:44.407Z,157820.81
2023-01-10T09:38:14.835Z,157828.78
2023-01-10T09:41:20.147Z,157839.38
2023-01-10T09:44:01.002Z,157835.44
2023-01-10T09:46:34.984Z,157850.03
2023-01-10T09:49:39.627Z,157865.97
2023-01-10T09:52:31.502Z,157867.31
2023-01-10T09:55:03.887Z,157870.00
2023-01-10T09:57:31.549Z,157876.63
2023-01-10T09:59:59.187Z,157879.28
2023-01-10T10:02:33.379Z,157873.94
2023-01-10T10:05:11.942Z,157880.59
2023-01-10T10:07:39.940Z,157884.59
2023-01-10T10:10:19.158Z,157872.63
2023-01-10T10:13:08.049Z,157860.66
2023-01-10T10:15:35.293Z,157873.94
2023-01-10T10:18:19.288Z,157881.91
2023-01-10T10:20:54.118Z,157883.28
2023-01-10T10:23:49.141Z,157881.91
2023-01-10T10:26:39.338Z,157871.31
2023-01-10T10:29:44.633Z,157883.28
2023-01-10T10:32:41.052Z,157887.25
2023-01-10T10:35:15.971Z,157904.56
2023-01-10T10:37:47.197Z,157895.22
2023-01-10T10:40:15.016Z,157907.19
2023-01-10T10:42:47.028Z,157908.50
2023-01-10T10:45:17.693Z,157909.84
2023-01-10T10:47:52.729Z,157916.47
2023-01-10T10:50:23.257Z,157931.09
2023-01-10T10:52:50.534Z,157948.41
2023-01-10T10:55:28.420Z,157964.34
2023-01-10T10:58:00.486Z,157977.66
2023-01-10T11:00:29.811Z,157982.97
2023-01-10T11:03:07.759Z,157981.66
2023-01-10T11:05:38.510Z,157988.28
2023-01-10T11:08:14.140Z,158001.56
2023-01-10T11:10:44.642Z,158008.22
2023-01-10T11:13:38.588Z,158008.22
2023-01-10T11:16:06.593Z,158016.19
2023-01-10T11:18:34.705Z,158013.56
2023-01-10T11:21:06.315Z,158025.53
2023-01-10T11:23:53.080Z,158018.88
2023-01-10T11:26:50.109Z,157998.94
2023-01-10T11:29:20.046Z,158008.22
2023-01-10T11:31:49.431Z,158016.19
2023-01-10T11:34:21.940Z,158002.94
2023-01-10T11:36:54.767Z,158008.22
2023-01-10T11:39:22.355Z,158012.22
2023-01-10T11:41:53.227Z,158010.91
2023-01-10T11:44:26.534Z,158012.22
2023-01-10T11:47:00.014Z,157968.38
2023-01-10T11:49:31.572Z,158016.19
2023-01-10T11:52:26.237Z,158017.56
2023-01-10T11:54:58.472Z,158008.22
2023-01-10T11:57:29.009Z,158006.91
2023-01-10T12:00:15.339Z,158009.59
2023-01-10T12:02:44.640Z,158009.59
2023-01-10T12:05:22.207Z,157986.94
2023-01-10T12:08:00.148Z,157998.94
2023-01-10T12:10:29.025Z,158009.59
2023-01-10T12:12:58.838Z,158012.22
2023-01-10T12:15:29.013Z,158012.22
2023-01-10T12:17:59.301Z,158008.22
2023-01-10T12:20:28.645Z,158012.22
2023-01-10T12:23:00.423Z,158008.22
2023-01-10T12:25:33.356Z,158001.56
2023-01-10T12:28:01.358Z,158008.22
2023-01-10T12:30:38.913Z,158014.88
2023-01-10T12:33:16.364Z,158002.94
2023-01-10T12:35:52.596Z,157986.94
2023-01-10T12:39:04.337Z,157992.28
2023-01-10T12:42:21.521Z,157982.97
2023-01-10T12:44:53.933Z,157964.34
2023-01-10T12:47:46.020Z,157975.00
2023-01-10T12:50:23.473Z,157976.34
2023-01-10T12:52:58.037Z,157978.97
2023-01-10T12:55:28.964Z,157971.00
2023-01-10T12:58:02.755Z,157955.06
2023-01-10T13:00:40.579Z,157961.72
2023-01-10T13:03:25.200Z,157965.69
2023-01-10T13:05:54.450Z,157968.38
2023-01-10T13:08:24.801Z,157957.69
2023-01-10T13:10:54.538Z,157976.34
2023-01-10T13:13:44.329Z,157969.69
2023-01-10T13:16:24.104Z,157964.34
2023-01-10T13:19:09.944Z,157967.00
2023-01-10T13:21:41.601Z,157964.34
2023-01-10T13:24:28.984Z,157967.00
2023-01-10T13:27:02.219Z,157957.69
2023-01-10T13:29:32.097Z,157961.72
2023-01-10T13:32:02.197Z,157952.38
2023-01-10T13:34:34.313Z,157956.38
2023-01-10T13:37:05.346Z,157957.69
2023-01-10T13:39:40.615Z,157964.34
2023-01-10T13:42:26.826Z,157963.03
2023-01-10T13:45:10.231Z,157961.72
2023-01-10T13:47:41.090Z,157953.75
2023-01-10T13:50:34.174Z,157953.75
2023-01-10T13:53:02.339Z,157956.38
2023-01-10T13:55:38.772Z,157961.72
2023-01-10T13:58:21.205Z,157961.72
2023-01-10T14:01:11.608Z,157943.09
2023-01-10T14:04:00.375Z,157948.41
2023-01-10T14:06:27.711Z,157943.09
2023-01-10T14:08:56.747Z,157940.44
2023-01-10T14:11:27.690Z,157931.09
2023-01-10T14:14:02.070Z,157935.13
2023-01-10T14:16:33.756Z,157932.47
2023-01-10T14:19:03.275Z,157933.78
2023-01-10T14:21:31.721Z,157925.81
2023-01-10T14:23:59.390Z,157928.47
2023-01-10T14:26:36.034Z,157921.81
2023-01-10T14:29:15.877Z,157913.84
2023-01-10T14:31:47.134Z,157901.88
2023-01-10T14:34:36.925Z,157888.56
2023-01-10T14:37:16.198Z,157871.31
2023-01-10T14:39:44.106Z,157871.31
2023-01-10T14:42:15.494Z,157823.44
2023-01-10T14:44:49.468Z,157848.72
2023-01-10T14:47:31.438Z,157839.38
2023-01-10T14:50:02.863Z,157850.03
2023-01-10T14:52:30.690Z,157832.75
2023-01-10T14:54:58.208Z,157831.41
2023-01-10T14:57:25.498Z,157835.44
2023-01-10T15:00:17.467Z,157816.81
2023-01-10T15:02:46.638Z,157831.41
2023-01-10T15:05:37.651Z,157815.47
2023-01-10T15:08:22.474Z,157790.22
2023-01-10T15:11:01.281Z,157778.28
2023-01-10T15:13:30.424Z,157778.28
2023-01-10T15:15:58.034Z,157779.59
2023-01-10T15:18:43.570Z,157775.59
2023-01-10T15:21:13.184Z,157771.63
2023-01-10T15:23:42.670Z,157765.00
2023-01-10T15:26:17.971Z,157765.00
2023-01-10T15:28:49.200Z,157759.66
2023-01-10T15:31:17.244Z,157749.00
2023-01-10T15:33:46.827Z,157751.69
2023-01-10T15:36:17.219Z,157691.88
2023-01-10T15:38:46.309Z,157733.09
2023-01-10T15:41:19.537Z,157726.44
2023-01-10T15:43:50.050Z,157721.09
2023-01-10T15:46:23.011Z,157722.47
2023-01-10T15:49:03.038Z,157703.88
2023-01-10T15:51:35.914Z,157697.22
2023-01-10T15:54:04.243Z,157689.25
2023-01-10T15:56:38.213Z,157699.84
2023-01-10T15:59:21.776Z,157699.84
2023-01-10T16:02:16.856Z,157677.28
2023-01-10T16:04:46.287Z,157674.63
2023-01-10T16:07:19.959Z,157666.69
2023-01-10T16:10:00.519Z,157671.94
2023-01-10T16:13:00.128Z,157660.03
2023-01-10T16:15:32.305Z,157653.38
2023-01-10T16:18:00.299Z,157652.06
2023-01-10T16:20:39.617Z,157645.41
2023-01-10T16:23:14.447Z,157629.44
2023-01-10T16:25:45.174Z,157636.09
2023-01-10T16:28:14.502Z,157626.81
2023-01-10T16:30:46.634Z,157636.09
2023-01-10T16:33:17.822Z,157625.50
2023-01-10T16:35:46.147Z,157624.16
2023-01-10T16:38:15.935Z,157605.56
2023-01-10T16:40:48.249Z,157600.22
2023-01-10T16:43:18.648Z,157616.16
2023-01-10T16:45:50.711Z,157602.94
2023-01-10T16:48:19.962Z,157598.91
2023-01-10T16:50:48.445Z,157586.94
2023-01-10T16:53:18.049Z,157568.38
2023-01-10T16:55:48.460Z,157565.69
2023-01-10T16:58:17.584Z,157560.38
2023-01-10T17:00:47.135Z,157549.78
2023-01-10T17:03:19.584Z,157541.81
2023-01-10T17:05:48.031Z,157545.78
2023-01-10T17:08:23.588Z,157525.91
2023-01-10T17:10:56.419Z,157520.56
2023-01-10T17:13:27.317Z,157520.56
2023-01-10T17:15:54.809Z,157519.25
2023-01-10T17:18:25.120Z,157501.97
2023-01-10T17:20:53.502Z,157499.31
2023-01-10T17:23:21.252Z,157491.38
2023-01-10T17:25:49.947Z,157478.09
2023-01-10T17:28:19.533Z,157484.72
2023-01-10T17:30:46.735Z,157466.13
2023-01-10T17:33:14.839Z,157490.00
2023-01-10T17:35:43.242Z,157494.00
2023-01-10T17:38:13.170Z,157494.00
2023-01-10T17:40:45.120Z,157466.13
2023-01-10T17:43:13.747Z,157482.03
2023-01-10T17:45:45.798Z,157487.38
2023-01-10T17:48:16.230Z,157480.72
2023-01-10T17:50:47.415Z,157468.75
2023-01-10T17:53:17.557Z,157470.13
2023-01-10T17:55:46.123Z,157474.06
2023-01-10T17:58:14.457Z,157472.75
2023-01-10T18:00:41.986Z,157472.75
2023-01-10T18:03:10.207Z,157474.06
2023-01-10T18:05:39.867Z,157472.75
2023-01-10T18:08:08.161Z,157467.44
2023-01-10T18:10:35.742Z,157472.75
2023-01-10T18:13:03.734Z,157475.41
2023-01-10T18:15:31.233Z,157478.09
2023-01-10T18:17:58.927Z,157486.03
2023-01-10T18:20:27.881Z,157486.03
2023-01-10T18:23:15.799Z,157492.69
2023-01-10T18:25:43.367Z,157487.38
2023-01-10T18:28:11.080Z,157482.03
2023-01-10T18:30:40.738Z,157470.13
2023-01-10T18:33:08.681Z,157459.47
2023-01-10T18:35:36.071Z,157438.22
2023-01-10T18:38:04.213Z,157451.53
2023-01-10T18:40:31.607Z,157430.28
2023-01-10T18:42:59.371Z,157427.63
2023-01-10T18:45:27.196Z,157423.63
2023-01-10T18:47:59.128Z,157435.59
2023-01-10T18:50:27.041Z,157432.91
2023-01-10T18:52:54.794Z,157436.91
2023-01-10T18:55:22.204Z,157435.59
2023-01-10T18:57:49.821Z,157447.50
2023-01-10T19:00:17.492Z,157447.50
2023-01-10T19:02:46.582Z,157439.56
2023-01-10T19:05:15.290Z,157430.28
2023-01-10T19:07:43.097Z,157426.28
2023-01-10T19:10:11.051Z,157414.38
2023-01-10T19:12:42.602Z,157394.44
2023-01-10T19:15:10.648Z,157395.75
2023-01-10T19:17:38.491Z,157385.13
2023-01-10T19:20:06.445Z,157377.16
2023-01-10T19:22:34.512Z,157389.13
2023-01-10T19:25:02.393Z,157362.56
2023-01-10T19:27:30.515Z,157379.84
2023-01-10T19:29:58.201Z,157382.47
2023-01-10T19:32:26.053Z,157379.84
2023-01-10T19:34:53.547Z,157369.19
2023-01-10T19:37:21.146Z,157369.19
2023-01-10T19:39:48.487Z,157361.25
2023-01-10T19:42:16.395Z,157371.88
2023-01-10T19:44:43.959Z,157385.13
2023-01-10T19:47:12.531Z,157383.78
2023-01-10T19:49:40.637Z,157386.47
2023-01-10T19:52:08.630Z,157382.47
2023-01-10T19:54:37.569Z,157371.88
2023-01-10T19:57:05.927Z,157371.88
2023-01-10T19:59:33.373Z,157358.63
2023-01-10T20:02:01.861Z,157358.63
2023-01-10T20:04:29.863Z,157358.63
2023-01-10T20:06:57.838Z,157351.97
2023-01-10T20:09:25.970Z,157322.78
2023-01-10T20:11:54.141Z,157349.28
2023-01-10T20:14:22.460Z,157347.97
2023-01-10T20:16:51.339Z,157345.34
2023-01-10T20:19:24.496Z,157281.63
2023-01-10T20:21:55.665Z,157301.56
2023-01-10T20:24:23.331Z,157294.91
2023-01-10T20:26:51.684Z,157349.28
2023-01-10T20:29:19.813Z,157347.97
2023-01-10T20:31:49.866Z,157334.69
2023-01-10T20:34:17.218Z,157329.41
2023-01-10T20:36:45.100Z,157330.75
2023-01-10T20:39:13.195Z,157301.56
2023-01-10T20:41:41.050Z,157278.94
2023-01-10T20:44:08.397Z,157275.00
2023-01-10T20:46:37.448Z,157253.78
2023-01-10T20:49:05.162Z,157249.78
2023-01-10T20:51:37.333Z,157237.81
2023-01-10T20:54:08.398Z,157212.63
2023-01-10T20:56:37.235Z,157208.63
2023-01-10T20:59:05.580Z,157186.09
2023-01-10T21:01:35.664Z,157175.50
2023-01-10T21:04:05.921Z,157160.88
2023-01-10T21:06:35.493Z,157131.69
2023-01-10T21:09:05.247Z,157114.47
2023-01-10T21:11:41.303Z,157109.16
2023-01-10T21:14:19.399Z,157111.78
2023-01-10T21:16:49.451Z,157083.94
2023-01-10T21:19:17.043Z,157086.63
2023-01-10T21:21:44.943Z,157087.94
2023-01-10T21:24:12.481Z,157069.34
2023-01-10T21:26:40.496Z,157094.56
2023-01-10T21:29:07.842Z,157095.88
2023-01-10T21:31:35.403Z,157080.00
2023-01-10T21:34:02.695Z,157090.56
2023-01-10T21:36:30.386Z,157089.25
2023-01-10T21:38:57.614Z,157080.00
2023-01-10T21:41:43.692Z,157085.31
2023-01-10T21:44:10.895Z,157085.31
2023-01-10T21:46:38.805Z,157099.91
2023-01-10T21:49:06.277Z,157101.22
2023-01-10T21:51:33.905Z,157106.53
2023-01-10T21:54:01.497Z,157077.34
2023-01-10T21:56:29.800Z,157068.03
2023-01-10T21:58:57.198Z,157021.66
2023-01-10T22:01:25.021Z,157011.03
2023-01-10T22:03:53.264Z,156979.19
2023-01-10T22:06:20.962Z,156991.13
2023-01-10T22:08:49.674Z,157005.72
2023-01-10T22:11:17.275Z,156981.88
2023-01-10T22:13:44.682Z,156960.66
2023-01-10T22:16:13.699Z,156942.09
2023-01-10T22:18:40.922Z,156942.09
2023-01-10T22:21:08.512Z,156948.72
2023-01-10T22:23:35.852Z,156936.78
2023-01-10T22:26:06.794Z,156940.75
2023-01-10T22:28:34.470Z,156946.09
2023-01-10T22:31:02.393Z,156943.41
2023-01-10T22:33:32.254Z,156914.25
2023-01-10T22:36:10.925Z,156907.63
2023-01-10T22:38:38.368Z,156911.59
2023-01-10T22:41:11.005Z,156920.88
2023-01-10T22:43:38.289Z,156927.50
2023-01-10T22:46:06.538Z,156930.13
2023-01-10T22:48:37.589Z,156904.97
2023-01-10T22:51:08.205Z,156900.97
2023-01-10T22:53:35.667Z,156893.03
2023-01-10T22:56:05.175Z,156887.72
2023-01-10T22:58:32.515Z,156895.72
2023-01-10T23:01:03.763Z,156838.69
2023-01-10T23:03:31.089Z,156832.06
2023-01-10T23:05:59.619Z,156822.78
2023-01-10T23:08:27.611Z,156832.06
2023-01-10T23:10:55.124Z,156830.75
2023-01-10T23:13:23.188Z,156854.63
2023-01-10T23:15:57.588Z,156867.88
2023-01-10T23:18:26.369Z,156853.25
2023-01-10T23:20:54.588Z,156865.19
2023-01-10T23:23:22.518Z,156873.16
2023-01-10T23:26:02.087Z,156871.84
2023-01-10T23:28:34.721Z,156873.16
2023-01-10T23:31:03.455Z,156889.09
2023-01-10T23:33:30.814Z,156902.34
2023-01-10T23:35:58.343Z,156870.53
2023-01-10T23:38:25.636Z,156897.03
2023-01-10T23:40:53.170Z,156903.66
2023-01-10T23:43:20.669Z,156900.97
2023-01-10T23:45:48.394Z,156893.03
2023-01-10T23:48:15.598Z,156895.72
2023-01-10T23:50:42.991Z,156906.28
2023-01-10T23:53:10.272Z,156923.56
2023-01-10T23:55:37.920Z,156914.25
2023-01-10T23:58:05.236Z,156931.50
